sensor_id;sensor_type;location;lat;lon;timestamp;temperature;humidity
53264;DHT22;39153;52.680;6.172;2022-12-18T00:00:46;-3.70;99.90
53264;DHT22;39153;52.680;6.172;2022-12-18T00:03:15;-3.80;99.90
53264;DHT22;39153;52.680;6.172;2022-12-18T00:05:51;-3.60;99.90
53264;DHT22;39153;52.680;6.172;2022-12-18T00:08:17;-3.80;99.90
53264;DHT22;39153;52.680;6.172;2022-12-18T00:10:44;-3.90;99.90
53264;DHT22;39153;52.680;6.172;2022-12-18T00:13:11;-3.70;99.90
53264;DHT22;39153;52.680;6.172;2022-12-18T00:15:38;-3.60;99.90
53264;DHT22;39153;52.680;6.172;2022-12-18T00:18:04;-3.90;99.90
53264;DHT22;39153;52.680;6.172;2022-12-18T00:20:30;-3.90;99.90
53264;DHT22;39153;52.680;6.172;2022-12-18T00:22:56;-3.90;99.90
53264;DHT22;39153;52.680;6.172;2022-12-18T00:25:22;-3.60;99.90
53264;DHT22;39153;52.680;6.172;2022-12-18T00:27:48;-3.80;99.90
53264;DHT22;39153;52.680;6.172;2022-12-18T00:30:14;-3.90;99.90
53264;DHT22;39153;52.680;6.172;2022-12-18T00:32:40;-3.40;99.90
53264;DHT22;39153;52.680;6.172;2022-12-18T00:35:06;-3.60;99.90
53264;DHT22;39153;52.680;6.172;2022-12-18T00:37:33;-3.80;99.90
53264;DHT22;39153;52.680;6.172;2022-12-18T00:39:59;-3.50;99.90
53264;DHT22;39153;52.680;6.172;2022-12-18T00:42:25;-3.60;99.90
53264;DHT22;39153;52.680;6.172;2022-12-18T00:45:09;-3.70;99.90
53264;DHT22;39153;52.680;6.172;2022-12-18T00:47:35;-3.90;99.90
53264;DHT22;39153;52.680;6.172;2022-12-18T00:50:00;-3.80;99.90
53264;DHT22;39153;52.680;6.172;2022-12-18T00:52:26;-3.70;99.90
53264;DHT22;39153;52.680;6.172;2022-12-18T00:54:52;-3.90;99.90
53264;DHT22;39153;52.680;6.172;2022-12-18T00:57:17;-3.70;99.90
53264;DHT22;39153;52.680;6.172;2022-12-18T00:59:43;-3.80;99.90
53264;DHT22;39153;52.680;6.172;2022-12-18T01:02:09;-3.70;99.90
53264;DHT22;39153;52.680;6.172;2022-12-18T01:04:34;-4.10;99.90
53264;DHT22;39153;52.680;6.172;2022-12-18T01:07:00;-3.90;99.90
53264;DHT22;39153;52.680;6.172;2022-12-18T01:09:26;-3.80;99.90
53264;DHT22;39153;52.680;6.172;2022-12-18T01:11:52;-3.90;99.90
53264;DHT22;39153;52.680;6.172;2022-12-18T01:14:17;-4.10;99.90
53264;DHT22;39153;52.680;6.172;2022-12-18T01:16:43;-4.10;99.90
53264;DHT22;39153;52.680;6.172;2022-12-18T01:19:09;-4.20;99.90
53264;DHT22;39153;52.680;6.172;2022-12-18T01:21:35;-3.80;99.90
53264;DHT22;39153;52.680;6.172;2022-12-18T01:24:00;-3.90;99.90
53264;DHT22;39153;52.680;6.172;2022-12-18T01:26:26;-4.20;99.90
53264;DHT22;39153;52.680;6.172;2022-12-18T01:28:55;-4.20;99.90
53264;DHT22;39153;52.680;6.172;2022-12-18T01:31:29;-4.20;99.90
53264;DHT22;39153;52.680;6.172;2022-12-18T01:33:55;-4.30;99.90
53264;DHT22;39153;52.680;6.172;2022-12-18T01:36:23;-4.30;99.90
53264;DHT22;39153;52.680;6.172;2022-12-18T01:38:50;-4.20;99.90
53264;DHT22;39153;52.680;6.172;2022-12-18T01:41:18;-4.20;99.90
53264;DHT22;39153;52.680;6.172;2022-12-18T01:43:54;-4.10;99.90
53264;DHT22;39153;52.680;6.172;2022-12-18T01:46:22;-4.30;99.90
53264;DHT22;39153;52.680;6.172;2022-12-18T01:48:50;-4.40;99.90
53264;DHT22;39153;52.680;6.172;2022-12-18T01:51:17;-4.40;99.90
53264;DHT22;39153;52.680;6.172;2022-12-18T01:53:44;-4.40;99.90
53264;DHT22;39153;52.680;6.172;2022-12-18T01:56:14;-4.20;99.90
53264;DHT22;39153;52.680;6.172;2022-12-18T01:58:52;-4.20;99.90
53264;DHT22;39153;52.680;6.172;2022-12-18T02:01:23;-4.30;99.90
53264;DHT22;39153;52.680;6.172;2022-12-18T02:03:49;-4.40;99.90
53264;DHT22;39153;52.680;6.172;2022-12-18T02:09:11;-4.50;99.90
53264;DHT22;39153;52.680;6.172;2022-12-18T02:13:05;-3.10;99.90
53264;DHT22;39153;52.680;6.172;2022-12-18T02:15:14;-4.50;99.90
53264;DHT22;39153;52.680;6.172;2022-12-18T02:17:43;-4.70;99.90
53264;DHT22;39153;52.680;6.172;2022-12-18T02:20:53;-4.80;99.90
53264;DHT22;39153;52.680;6.172;2022-12-18T02:28:30;-4.90;99.90
53264;DHT22;39153;52.680;6.172;2022-12-18T02:30:59;-4.80;99.90
53264;DHT22;39153;52.680;6.172;2022-12-18T02:33:27;-5.00;99.90
53264;DHT22;39153;52.680;6.172;2022-12-18T02:35:54;-4.90;99.90
53264;DHT22;39153;52.680;6.172;2022-12-18T02:38:21;-5.00;99.90
53264;DHT22;39153;52.680;6.172;2022-12-18T02:40:48;-5.10;99.90
53264;DHT22;39153;52.680;6.172;2022-12-18T02:43:15;-5.10;99.90
53264;DHT22;39153;52.680;6.172;2022-12-18T02:45:55;-5.00;99.90
53264;DHT22;39153;52.680;6.172;2022-12-18T02:48:28;-5.00;99.90
53264;DHT22;39153;52.680;6.172;2022-12-18T02:51:08;-5.20;99.90
53264;DHT22;39153;52.680;6.172;2022-12-18T02:53:51;-5.20;99.90
53264;DHT22;39153;52.680;6.172;2022-12-18T02:56:29;-5.10;99.90
53264;DHT22;39153;52.680;6.172;2022-12-18T02:59:07;-5.10;99.90
53264;DHT22;39153;52.680;6.172;2022-12-18T03:04:14;-5.20;99.90
53264;DHT22;39153;52.680;6.172;2022-12-18T03:06:48;-5.30;99.90
53264;DHT22;39153;52.680;6.172;2022-12-18T03:09:22;-5.20;99.90
53264;DHT22;39153;52.680;6.172;2022-12-18T03:11:56;-5.20;99.90
53264;DHT22;39153;52.680;6.172;2022-12-18T03:14:42;-5.20;99.90
53264;DHT22;39153;52.680;6.172;2022-12-18T03:17:11;-5.40;99.90
53264;DHT22;39153;52.680;6.172;2022-12-18T03:19:39;-5.40;99.90
53264;DHT22;39153;52.680;6.172;2022-12-18T03:22:06;-5.30;99.90
53264;DHT22;39153;52.680;6.172;2022-12-18T03:24:33;-5.50;99.90
53264;DHT22;39153;52.680;6.172;2022-12-18T03:27:02;-5.40;99.90
53264;DHT22;39153;52.680;6.172;2022-12-18T03:29:35;-5.40;99.90
53264;DHT22;39153;52.680;6.172;2022-12-18T03:32:06;-5.40;99.90
53264;DHT22;39153;52.680;6.172;2022-12-18T03:34:35;-5.40;99.90
53264;DHT22;39153;52.680;6.172;2022-12-18T03:37:03;-5.40;99.90
53264;DHT22;39153;52.680;6.172;2022-12-18T03:39:29;-5.40;99.90
53264;DHT22;39153;52.680;6.172;2022-12-18T03:42:23;-5.40;99.90
53264;DHT22;39153;52.680;6.172;2022-12-18T03:52:57;-5.60;99.90
53264;DHT22;39153;52.680;6.172;2022-12-18T03:55:28;-5.60;99.90
53264;DHT22;39153;52.680;6.172;2022-12-18T03:57:56;-5.50;99.90
53264;DHT22;39153;52.680;6.172;2022-12-18T04:00:22;-5.70;99.90
53264;DHT22;39153;52.680;6.172;2022-12-18T04:02:51;-5.60;99.90
53264;DHT22;39153;52.680;6.172;2022-12-18T04:05:20;-5.70;99.90
53264;DHT22;39153;52.680;6.172;2022-12-18T04:07:47;-5.60;99.90
53264;DHT22;39153;52.680;6.172;2022-12-18T04:10:15;-5.60;99.90
53264;DHT22;39153;52.680;6.172;2022-12-18T04:12:42;-5.70;99.90
53264;DHT22;39153;52.680;6.172;2022-12-18T04:15:08;-5.70;99.90
53264;DHT22;39153;52.680;6.172;2022-12-18T04:17:34;-5.80;99.90
53264;DHT22;39153;52.680;6.172;2022-12-18T04:20:00;-5.80;99.90
53264;DHT22;39153;52.680;6.172;2022-12-18T04:22:26;-5.70;99.90
53264;DHT22;39153;52.680;6.172;2022-12-18T04:24:52;-5.70;99.90
53264;DHT22;39153;52.680;6.172;2022-12-18T04:27:17;-5.80;99.90
53264;DHT22;39153;52.680;6.172;2022-12-18T04:29:43;-5.80;99.90
53264;DHT22;39153;52.680;6.172;2022-12-18T04:32:09;-5.80;99.90
53264;DHT22;39153;52.680;6.172;2022-12-18T04:34:34;-5.70;99.90
53264;DHT22;39153;52.680;6.172;2022-12-18T04:37:00;-5.70;99.90
53264;DHT22;39153;52.680;6.172;2022-12-18T04:39:26;-5.70;99.90
53264;DHT22;39153;52.680;6.172;2022-12-18T04:41:52;-5.80;99.90
53264;DHT22;39153;52.680;6.172;2022-12-18T04:44:17;-5.80;99.90
53264;DHT22;39153;52.680;6.172;2022-12-18T04:46:43;-5.80;99.90
53264;DHT22;39153;52.680;6.172;2022-12-18T04:49:09;-5.70;99.90
53264;DHT22;39153;52.680;6.172;2022-12-18T04:51:36;-5.80;99.90
53264;DHT22;39153;52.680;6.172;2022-12-18T04:54:02;-5.80;99.90
53264;DHT22;39153;52.680;6.172;2022-12-18T04:56:30;-5.80;99.90
53264;DHT22;39153;52.680;6.172;2022-12-18T04:58:56;-5.80;99.90
53264;DHT22;39153;52.680;6.172;2022-12-18T05:01:22;-5.80;99.90
53264;DHT22;39153;52.680;6.172;2022-12-18T05:03:47;-5.80;99.90
53264;DHT22;39153;52.680;6.172;2022-12-18T05:06:13;-5.80;99.90
53264;DHT22;39153;52.680;6.172;2022-12-18T05:08:39;-5.90;99.90
53264;DHT22;39153;52.680;6.172;2022-12-18T05:11:07;-5.80;99.90
53264;DHT22;39153;52.680;6.172;2022-12-18T05:13:34;-5.90;99.90
53264;DHT22;39153;52.680;6.172;2022-12-18T05:16:01;-5.90;99.90
53264;DHT22;39153;52.680;6.172;2022-12-18T05:18:27;-5.90;99.90
53264;DHT22;39153;52.680;6.172;2022-12-18T05:20:54;-5.90;99.90
53264;DHT22;39153;52.680;6.172;2022-12-18T05:23:21;-5.90;99.90
53264;DHT22;39153;52.680;6.172;2022-12-18T05:26:02;-5.90;99.90
53264;DHT22;39153;52.680;6.172;2022-12-18T05:28:30;-5.90;99.90
53264;DHT22;39153;52.680;6.172;2022-12-18T05:30:58;-5.90;99.90
53264;DHT22;39153;52.680;6.172;2022-12-18T05:33:25;-5.90;99.90
53264;DHT22;39153;52.680;6.172;2022-12-18T05:35:52;-5.80;99.90
53264;DHT22;39153;52.680;6.172;2022-12-18T05:38:20;-5.90;99.90
53264;DHT22;39153;52.680;6.172;2022-12-18T05:40:47;-5.90;99.90
53264;DHT22;39153;52.680;6.172;2022-12-18T05:43:12;-5.80;99.90
53264;DHT22;39153;52.680;6.172;2022-12-18T05:45:39;-5.80;99.90
53264;DHT22;39153;52.680;6.172;2022-12-18T05:48:06;-5.90;99.90
53264;DHT22;39153;52.680;6.172;2022-12-18T05:50:40;-5.80;99.90
53264;DHT22;39153;52.680;6.172;2022-12-18T05:53:07;-5.90;99.90
53264;DHT22;39153;52.680;6.172;2022-12-18T05:55:34;-5.90;99.90
53264;DHT22;39153;52.680;6.172;2022-12-18T05:58:00;-5.90;99.90
53264;DHT22;39153;52.680;6.172;2022-12-18T06:00:26;-5.90;99.90
53264;DHT22;39153;52.680;6.172;2022-12-18T06:02:52;-5.90;99.90
53264;DHT22;39153;52.680;6.172;2022-12-18T06:05:18;-6.00;99.90
53264;DHT22;39153;52.680;6.172;2022-12-18T06:07:44;-5.90;99.90
53264;DHT22;39153;52.680;6.172;2022-12-18T06:10:09;-5.90;99.90
53264;DHT22;39153;52.680;6.172;2022-12-18T06:12:35;-6.00;99.90
53264;DHT22;39153;52.680;6.172;2022-12-18T06:15:01;-6.00;99.90
53264;DHT22;39153;52.680;6.172;2022-12-18T06:17:33;-6.00;99.90
53264;DHT22;39153;52.680;6.172;2022-12-18T06:19:59;-6.00;99.90
53264;DHT22;39153;52.680;6.172;2022-12-18T06:22:25;-6.00;99.90
53264;DHT22;39153;52.680;6.172;2022-12-18T06:24:51;-6.10;99.90
53264;DHT22;39153;52.680;6.172;2022-12-18T06:27:17;-6.00;99.90
53264;DHT22;39153;52.680;6.172;2022-12-18T06:29:42;-6.00;99.90
53264;DHT22;39153;52.680;6.172;2022-12-18T06:32:08;-6.10;99.90
53264;DHT22;39153;52.680;6.172;2022-12-18T06:34:36;-6.10;99.90
53264;DHT22;39153;52.680;6.172;2022-12-18T06:37:02;-6.10;99.90
53264;DHT22;39153;52.680;6.172;2022-12-18T06:39:28;-6.20;99.90
53264;DHT22;39153;52.680;6.172;2022-12-18T06:41:54;-6.20;99.90
53264;DHT22;39153;52.680;6.172;2022-12-18T06:44:19;-6.20;99.90
53264;DHT22;39153;52.680;6.172;2022-12-18T06:46:45;-6.20;99.90
53264;DHT22;39153;52.680;6.172;2022-12-18T06:49:11;-6.00;99.90
53264;DHT22;39153;52.680;6.172;2022-12-18T06:51:37;-6.30;99.90
53264;DHT22;39153;52.680;6.172;2022-12-18T06:54:03;-6.30;99.90
53264;DHT22;39153;52.680;6.172;2022-12-18T06:56:29;-6.30;99.90
53264;DHT22;39153;52.680;6.172;2022-12-18T06:58:55;-6.40;99.90
53264;DHT22;39153;52.680;6.172;2022-12-18T07:01:21;-6.40;99.90
53264;DHT22;39153;52.680;6.172;2022-12-18T07:03:51;-6.30;99.90
53264;DHT22;39153;52.680;6.172;2022-12-18T07:06:21;-6.30;99.90
53264;DHT22;39153;52.680;6.172;2022-12-18T07:08:48;-6.30;99.90
53264;DHT22;39153;52.680;6.172;2022-12-18T07:11:15;-6.30;99.90
53264;DHT22;39153;52.680;6.172;2022-12-18T07:13:41;-6.30;99.90
53264;DHT22;39153;52.680;6.172;2022-12-18T07:16:19;-6.20;99.90
53264;DHT22;39153;52.680;6.172;2022-12-18T07:18:45;-6.30;99.90
53264;DHT22;39153;52.680;6.172;2022-12-18T07:21:13;-6.30;99.90
53264;DHT22;39153;52.680;6.172;2022-12-18T07:23:39;-6.30;99.90
53264;DHT22;39153;52.680;6.172;2022-12-18T07:26:10;-6.30;99.90
53264;DHT22;39153;52.680;6.172;2022-12-18T07:28:37;-6.30;99.90
53264;DHT22;39153;52.680;6.172;2022-12-18T07:31:08;-6.20;99.90
53264;DHT22;39153;52.680;6.172;2022-12-18T07:33:35;-6.20;99.90
53264;DHT22;39153;52.680;6.172;2022-12-18T07:36:02;-6.10;99.90
53264;DHT22;39153;52.680;6.172;2022-12-18T07:38:29;-6.10;99.90
53264;DHT22;39153;52.680;6.172;2022-12-18T07:40:59;-6.00;99.90
53264;DHT22;39153;52.680;6.172;2022-12-18T07:43:25;-6.10;99.90
53264;DHT22;39153;52.680;6.172;2022-12-18T07:45:50;-6.10;99.90
53264;DHT22;39153;52.680;6.172;2022-12-18T07:48:16;-6.10;99.90
53264;DHT22;39153;52.680;6.172;2022-12-18T07:50:42;-6.10;99.90
53264;DHT22;39153;52.680;6.172;2022-12-18T07:53:07;-6.00;99.90
53264;DHT22;39153;52.680;6.172;2022-12-18T07:55:33;-6.10;99.90
53264;DHT22;39153;52.680;6.172;2022-12-18T07:58:03;-6.10;99.90
53264;DHT22;39153;52.680;6.172;2022-12-18T08:00:29;-6.10;99.90
53264;DHT22;39153;52.680;6.172;2022-12-18T08:02:54;-6.00;99.90
53264;DHT22;39153;52.680;6.172;2022-12-18T08:05:20;-6.10;99.90
53264;DHT22;39153;52.680;6.172;2022-12-18T08:07:46;-6.00;99.90
53264;DHT22;39153;52.680;6.172;2022-12-18T08:10:12;-6.10;99.90
53264;DHT22;39153;52.680;6.172;2022-12-18T08:12:38;-6.00;99.90
53264;DHT22;39153;52.680;6.172;2022-12-18T08:15:04;-6.00;99.90
53264;DHT22;39153;52.680;6.172;2022-12-18T08:17:30;-6.00;99.90
53264;DHT22;39153;52.680;6.172;2022-12-18T08:19:55;-6.00;99.90
53264;DHT22;39153;52.680;6.172;2022-12-18T08:22:21;-6.00;99.90
53264;DHT22;39153;52.680;6.172;2022-12-18T08:24:47;-6.00;99.90
53264;DHT22;39153;52.680;6.172;2022-12-18T08:27:12;-6.00;99.90
53264;DHT22;39153;52.680;6.172;2022-12-18T08:29:38;-6.00;99.90
53264;DHT22;39153;52.680;6.172;2022-12-18T08:32:04;-5.90;99.90
53264;DHT22;39153;52.680;6.172;2022-12-18T08:34:30;-5.90;99.90
53264;DHT22;39153;52.680;6.172;2022-12-18T08:36:55;-5.90;99.90
53264;DHT22;39153;52.680;6.172;2022-12-18T08:39:21;-5.80;99.90
53264;DHT22;39153;52.680;6.172;2022-12-18T08:41:47;-5.80;99.90
53264;DHT22;39153;52.680;6.172;2022-12-18T08:44:32;-5.80;99.90
53264;DHT22;39153;52.680;6.172;2022-12-18T08:47:05;-5.80;99.90
53264;DHT22;39153;52.680;6.172;2022-12-18T08:49:31;-5.80;99.90
53264;DHT22;39153;52.680;6.172;2022-12-18T08:51:57;-5.70;99.90
53264;DHT22;39153;52.680;6.172;2022-12-18T08:54:23;-5.70;99.90
53264;DHT22;39153;52.680;6.172;2022-12-18T08:56:49;-5.70;99.90
53264;DHT22;39153;52.680;6.172;2022-12-18T08:59:16;-5.60;99.90
53264;DHT22;39153;52.680;6.172;2022-12-18T09:01:42;-5.60;99.90
53264;DHT22;39153;52.680;6.172;2022-12-18T09:04:08;-5.50;99.90
53264;DHT22;39153;52.680;6.172;2022-12-18T09:06:35;-5.50;99.90
53264;DHT22;39153;52.680;6.172;2022-12-18T09:09:01;-5.40;99.90
53264;DHT22;39153;52.680;6.172;2022-12-18T09:11:28;-5.40;99.90
53264;DHT22;39153;52.680;6.172;2022-12-18T09:13:55;-5.30;99.90
53264;DHT22;39153;52.680;6.172;2022-12-18T09:16:22;-5.10;99.90
53264;DHT22;39153;52.680;6.172;2022-12-18T09:18:48;-5.00;99.90
53264;DHT22;39153;52.680;6.172;2022-12-18T09:21:20;-4.90;99.90
53264;DHT22;39153;52.680;6.172;2022-12-18T09:23:54;-4.80;99.90
53264;DHT22;39153;52.680;6.172;2022-12-18T09:26:21;-4.70;99.90
53264;DHT22;39153;52.680;6.172;2022-12-18T09:28:47;-4.60;99.90
53264;DHT22;39153;52.680;6.172;2022-12-18T09:31:13;-4.50;99.90
53264;DHT22;39153;52.680;6.172;2022-12-18T09:33:39;-4.50;99.90
53264;DHT22;39153;52.680;6.172;2022-12-18T09:36:07;-4.50;99.90
53264;DHT22;39153;52.680;6.172;2022-12-18T09:38:34;-4.40;99.90
53264;DHT22;39153;52.680;6.172;2022-12-18T09:49:45;-4.00;99.90
53264;DHT22;39153;52.680;6.172;2022-12-18T09:55:48;-3.90;99.90
53264;DHT22;39153;52.680;6.172;2022-12-18T09:57:56;-3.90;99.90
53264;DHT22;39153;52.680;6.172;2022-12-18T10:00:23;-3.90;99.90
53264;DHT22;39153;52.680;6.172;2022-12-18T10:02:52;-3.90;99.90
53264;DHT22;39153;52.680;6.172;2022-12-18T10:08:33;-3.80;99.90
53264;DHT22;39153;52.680;6.172;2022-12-18T10:13:59;-3.70;99.90
53264;DHT22;39153;52.680;6.172;2022-12-18T10:19:39;-3.60;99.90
53264;DHT22;39153;52.680;6.172;2022-12-18T10:27:24;-3.40;99.90
53264;DHT22;39153;52.680;6.172;2022-12-18T10:29:51;-3.30;99.90
53264;DHT22;39153;52.680;6.172;2022-12-18T10:32:20;-3.20;99.90
53264;DHT22;39153;52.680;6.172;2022-12-18T10:34:51;-3.10;99.90
53264;DHT22;39153;52.680;6.172;2022-12-18T10:37:19;-3.10;99.90
53264;DHT22;39153;52.680;6.172;2022-12-18T10:39:47;-3.10;99.90
53264;DHT22;39153;52.680;6.172;2022-12-18T10:42:30;-3.10;99.90
53264;DHT22;39153;52.680;6.172;2022-12-18T10:45:22;-3.00;99.90
53264;DHT22;39153;52.680;6.172;2022-12-18T10:47:49;-2.90;99.90
53264;DHT22;39153;52.680;6.172;2022-12-18T10:52:58;-2.80;99.90
53264;DHT22;39153;52.680;6.172;2022-12-18T10:55:24;-2.80;99.90
53264;DHT22;39153;52.680;6.172;2022-12-18T10:57:52;-2.80;99.90
53264;DHT22;39153;52.680;6.172;2022-12-18T11:00:29;-2.70;99.90
53264;DHT22;39153;52.680;6.172;2022-12-18T11:02:56;-2.70;99.90
53264;DHT22;39153;52.680;6.172;2022-12-18T11:05:29;-2.70;99.90
53264;DHT22;39153;52.680;6.172;2022-12-18T11:07:55;-2.70;99.90
53264;DHT22;39153;52.680;6.172;2022-12-18T11:10:32;-2.40;99.90
53264;DHT22;39153;52.680;6.172;2022-12-18T11:18:22;-2.50;99.90
53264;DHT22;39153;52.680;6.172;2022-12-18T11:21:08;-2.40;99.90
53264;DHT22;39153;52.680;6.172;2022-12-18T11:23:35;-2.40;99.90
53264;DHT22;39153;52.680;6.172;2022-12-18T11:26:03;-2.30;99.90
53264;DHT22;39153;52.680;6.172;2022-12-18T11:28:41;-2.30;99.90
53264;DHT22;39153;52.680;6.172;2022-12-18T11:31:26;-2.30;99.90
53264;DHT22;39153;52.680;6.172;2022-12-18T11:34:11;-2.30;99.90
53264;DHT22;39153;52.680;6.172;2022-12-18T11:36:42;-2.20;99.90
53264;DHT22;39153;52.680;6.172;2022-12-18T11:39:36;-2.20;99.90
53264;DHT22;39153;52.680;6.172;2022-12-18T11:42:15;-2.20;99.90
53264;DHT22;39153;52.680;6.172;2022-12-18T11:44:50;-2.20;99.90
53264;DHT22;39153;52.680;6.172;2022-12-18T11:47:37;-2.20;99.90
53264;DHT22;39153;52.680;6.172;2022-12-18T11:50:16;-2.20;99.90
53264;DHT22;39153;52.680;6.172;2022-12-18T11:52:43;-2.20;99.90
53264;DHT22;39153;52.680;6.172;2022-12-18T11:57:54;-2.10;99.90
53264;DHT22;39153;52.680;6.172;2022-12-18T12:00:22;-2.10;99.90
53264;DHT22;39153;52.680;6.172;2022-12-18T12:03:16;-2.10;99.90
53264;DHT22;39153;52.680;6.172;2022-12-18T12:11:48;-2.00;99.90
53264;DHT22;39153;52.680;6.172;2022-12-18T12:14:42;-2.00;99.90
53264;DHT22;39153;52.680;6.172;2022-12-18T12:17:22;-2.00;99.90
53264;DHT22;39153;52.680;6.172;2022-12-18T12:23:05;-1.90;99.90
53264;DHT22;39153;52.680;6.172;2022-12-18T12:25:44;-1.80;99.90
53264;DHT22;39153;52.680;6.172;2022-12-18T12:31:29;-1.80;99.90
53264;DHT22;39153;52.680;6.172;2022-12-18T12:39:22;-1.70;99.90
53264;DHT22;39153;52.680;6.172;2022-12-18T12:41:51;-1.60;99.90
53264;DHT22;39153;52.680;6.172;2022-12-18T12:44:41;-1.60;99.90
53264;DHT22;39153;52.680;6.172;2022-12-18T12:47:19;-1.50;99.90
53264;DHT22;39153;52.680;6.172;2022-12-18T12:49:47;-1.50;99.90
53264;DHT22;39153;52.680;6.172;2022-12-18T12:52:46;-1.40;99.90
53264;DHT22;39153;52.680;6.172;2022-12-18T12:55:21;-1.40;99.90
53264;DHT22;39153;52.680;6.172;2022-12-18T13:09:03;-1.30;99.90
53264;DHT22;39153;52.680;6.172;2022-12-18T13:11:42;-1.30;99.90
53264;DHT22;39153;52.680;6.172;2022-12-18T13:14:50;-1.30;99.90
53264;DHT22;39153;52.680;6.172;2022-12-18T13:19:51;-1.30;99.90
53264;DHT22;39153;52.680;6.172;2022-12-18T13:22:37;-1.20;99.90
53264;DHT22;39153;52.680;6.172;2022-12-18T13:25:21;-1.20;99.90
53264;DHT22;39153;52.680;6.172;2022-12-18T13:28:03;-1.20;99.90
53264;DHT22;39153;52.680;6.172;2022-12-18T13:38:37;-1.20;99.90
53264;DHT22;39153;52.680;6.172;2022-12-18T13:41:22;-1.20;99.90
53264;DHT22;39153;52.680;6.172;2022-12-18T13:43:49;-1.20;99.90
53264;DHT22;39153;52.680;6.172;2022-12-18T13:51:24;-1.20;99.90
53264;DHT22;39153;52.680;6.172;2022-12-18T13:56:47;-1.20;99.90
53264;DHT22;39153;52.680;6.172;2022-12-18T13:59:14;-1.20;99.90
53264;DHT22;39153;52.680;6.172;2022-12-18T14:02:13;-1.20;99.90
53264;DHT22;39153;52.680;6.172;2022-12-18T14:04:39;-1.20;99.90
53264;DHT22;39153;52.680;6.172;2022-12-18T14:07:23;-1.20;99.90
53264;DHT22;39153;52.680;6.172;2022-12-18T14:09:59;-1.20;99.90
53264;DHT22;39153;52.680;6.172;2022-12-18T14:12:30;-1.20;99.90
53264;DHT22;39153;52.680;6.172;2022-12-18T14:18:18;-1.20;99.90
53264;DHT22;39153;52.680;6.172;2022-12-18T14:20:44;-1.20;99.90
53264;DHT22;39153;52.680;6.172;2022-12-18T14:25:52;-1.20;99.90
53264;DHT22;39153;52.680;6.172;2022-12-18T14:28:18;-1.20;99.90
53264;DHT22;39153;52.680;6.172;2022-12-18T14:30:45;-1.20;99.90
53264;DHT22;39153;52.680;6.172;2022-12-18T14:33:13;-1.30;99.90
53264;DHT22;39153;52.680;6.172;2022-12-18T14:36:02;-1.30;99.90
53264;DHT22;39153;52.680;6.172;2022-12-18T14:38:28;-1.30;99.90
53264;DHT22;39153;52.680;6.172;2022-12-18T14:40:58;-1.30;99.90
53264;DHT22;39153;52.680;6.172;2022-12-18T14:43:26;-1.30;99.90
53264;DHT22;39153;52.680;6.172;2022-12-18T14:45:52;-1.30;99.90
53264;DHT22;39153;52.680;6.172;2022-12-18T14:50:56;-1.20;99.90
53264;DHT22;39153;52.680;6.172;2022-12-18T14:53:38;-1.20;99.90
53264;DHT22;39153;52.680;6.172;2022-12-18T14:56:32;-1.20;99.90
53264;DHT22;39153;52.680;6.172;2022-12-18T14:59:02;-1.20;99.90
53264;DHT22;39153;52.680;6.172;2022-12-18T15:01:30;-1.20;99.90
53264;DHT22;39153;52.680;6.172;2022-12-18T15:03:58;-1.20;99.90
53264;DHT22;39153;52.680;6.172;2022-12-18T15:08:52;-1.20;99.90
53264;DHT22;39153;52.680;6.172;2022-12-18T15:11:45;-1.00;99.90
53264;DHT22;39153;52.680;6.172;2022-12-18T15:14:48;-1.20;99.90
53264;DHT22;39153;52.680;6.172;2022-12-18T15:17:22;-1.20;99.90
53264;DHT22;39153;52.680;6.172;2022-12-18T15:19:51;0.40;99.90
53264;DHT22;39153;52.680;6.172;2022-12-18T15:22:18;-1.20;99.90
53264;DHT22;39153;52.680;6.172;2022-12-18T15:24:44;-1.20;99.90
53264;DHT22;39153;52.680;6.172;2022-12-18T15:27:31;-1.20;99.90
53264;DHT22;39153;52.680;6.172;2022-12-18T15:32:36;-1.20;99.90
53264;DHT22;39153;52.680;6.172;2022-12-18T15:37:37;-1.20;99.90
53264;DHT22;39153;52.680;6.172;2022-12-18T15:40:03;-1.20;99.90
53264;DHT22;39153;52.680;6.172;2022-12-18T15:42:29;-1.20;99.90
53264;DHT22;39153;52.680;6.172;2022-12-18T15:45:14;-1.20;99.90
53264;DHT22;39153;52.680;6.172;2022-12-18T15:47:40;-1.20;99.90
53264;DHT22;39153;52.680;6.172;2022-12-18T15:50:08;-1.20;99.90
53264;DHT22;39153;52.680;6.172;2022-12-18T15:52:40;-1.20;99.90
53264;DHT22;39153;52.680;6.172;2022-12-18T15:55:18;-1.20;99.90
53264;DHT22;39153;52.680;6.172;2022-12-18T15:58:04;-1.20;99.90
53264;DHT22;39153;52.680;6.172;2022-12-18T16:00:30;-1.20;99.90
53264;DHT22;39153;52.680;6.172;2022-12-18T16:02:56;-1.20;99.90
53264;DHT22;39153;52.680;6.172;2022-12-18T16:05:23;-1.20;99.90
53264;DHT22;39153;52.680;6.172;2022-12-18T16:07:49;-1.20;99.90
53264;DHT22;39153;52.680;6.172;2022-12-18T16:10:15;-1.20;99.90
53264;DHT22;39153;52.680;6.172;2022-12-18T16:12:41;-1.20;99.90
53264;DHT22;39153;52.680;6.172;2022-12-18T16:15:09;-1.10;99.90
53264;DHT22;39153;52.680;6.172;2022-12-18T16:17:35;-1.10;99.90
53264;DHT22;39153;52.680;6.172;2022-12-18T16:20:01;-1.10;99.90
53264;DHT22;39153;52.680;6.172;2022-12-18T16:22:28;-1.10;99.90
53264;DHT22;39153;52.680;6.172;2022-12-18T16:24:55;-1.10;99.90
53264;DHT22;39153;52.680;6.172;2022-12-18T16:27:22;-1.00;99.90
53264;DHT22;39153;52.680;6.172;2022-12-18T16:29:48;-1.10;99.90
53264;DHT22;39153;52.680;6.172;2022-12-18T16:32:19;-1.10;99.90
53264;DHT22;39153;52.680;6.172;2022-12-18T16:34:45;-1.10;99.90
53264;DHT22;39153;52.680;6.172;2022-12-18T16:37:13;-1.10;99.90
53264;DHT22;39153;52.680;6.172;2022-12-18T16:39:40;-1.10;99.90
53264;DHT22;39153;52.680;6.172;2022-12-18T16:42:13;-1.00;99.90
53264;DHT22;39153;52.680;6.172;2022-12-18T16:44:40;-1.00;99.90
53264;DHT22;39153;52.680;6.172;2022-12-18T16:47:06;-0.70;99.90
53264;DHT22;39153;52.680;6.172;2022-12-18T16:49:32;-1.00;99.90
53264;DHT22;39153;52.680;6.172;2022-12-18T16:51:57;-1.00;99.90
53264;DHT22;39153;52.680;6.172;2022-12-18T16:54:23;-1.00;99.90
53264;DHT22;39153;52.680;6.172;2022-12-18T16:56:50;-0.60;99.90
53264;DHT22;39153;52.680;6.172;2022-12-18T16:59:16;-1.10;99.90
53264;DHT22;39153;52.680;6.172;2022-12-18T17:01:41;-1.10;99.90
53264;DHT22;39153;52.680;6.172;2022-12-18T17:04:08;-1.10;99.90
53264;DHT22;39153;52.680;6.172;2022-12-18T17:06:38;-1.00;99.90
53264;DHT22;39153;52.680;6.172;2022-12-18T17:09:11;-1.00;99.90
53264;DHT22;39153;52.680;6.172;2022-12-18T17:11:36;-0.50;99.90
53264;DHT22;39153;52.680;6.172;2022-12-18T17:14:07;-1.00;99.90
53264;DHT22;39153;52.680;6.172;2022-12-18T17:16:33;-1.00;99.90
53264;DHT22;39153;52.680;6.172;2022-12-18T17:18:58;-1.00;99.90
53264;DHT22;39153;52.680;6.172;2022-12-18T17:21:24;-1.00;99.90
53264;DHT22;39153;52.680;6.172;2022-12-18T17:23:50;-1.00;99.90
53264;DHT22;39153;52.680;6.172;2022-12-18T17:26:15;-1.00;99.90
53264;DHT22;39153;52.680;6.172;2022-12-18T17:28:41;-1.00;99.90
53264;DHT22;39153;52.680;6.172;2022-12-18T17:31:12;-1.00;99.90
53264;DHT22;39153;52.680;6.172;2022-12-18T17:33:39;-1.00;99.90
53264;DHT22;39153;52.680;6.172;2022-12-18T17:36:05;-1.00;99.90
53264;DHT22;39153;52.680;6.172;2022-12-18T17:38:30;-1.00;99.90
53264;DHT22;39153;52.680;6.172;2022-12-18T17:41:03;-1.00;99.90
53264;DHT22;39153;52.680;6.172;2022-12-18T17:43:29;-0.90;99.90
53264;DHT22;39153;52.680;6.172;2022-12-18T17:45:56;-0.90;99.90